sensor_id;sensor_type;location;lat;lon;timestamp;pressure;altitude;pressure_sealevel;temperature;humidity
26823;BME280;14852;51.910;8.878;2023-05-20T00:01:23;100576.78;;;12.98;46.57
26823;BME280;14852;51.910;8.878;2023-05-20T00:03:49;100578.78;;;12.93;46.32
26823;BME280;14852;51.910;8.878;2023-05-20T00:06:15;100571.41;;;12.84;46.54
26823;BME280;14852;51.910;8.878;2023-05-20T00:08:41;100567.47;;;12.76;46.79
26823;BME280;14852;51.910;8.878;2023-05-20T00:11:06;100574.78;;;12.69;46.94
26823;BME280;14852;51.910;8.878;2023-05-20T00:13:32;100568.06;;;12.63;47.11
26823;BME280;14852;51.910;8.878;2023-05-20T00:16:00;100569.06;;;12.61;46.97
26823;BME280;14852;51.910;8.878;2023-05-20T00:18:26;100559.53;;;12.60;46.74
26823;BME280;14852;51.910;8.878;2023-05-20T00:20:52;100562.22;;;12.58;47.08
26823;BME280;14852;51.910;8.878;2023-05-20T00:23:19;100566.81;;;12.53;47.00
26823;BME280;14852;51.910;8.878;2023-05-20T00:25:45;100557.53;;;12.48;47.28
26823;BME280;14852;51.910;8.878;2023-05-20T00:28:10;100553.53;;;12.41;47.34
26823;BME280;14852;51.910;8.878;2023-05-20T00:30:39;100554.75;;;12.33;47.52
26823;BME280;14852;51.910;8.878;2023-05-20T00:33:08;100564.38;;;12.31;47.37
26823;BME280;14852;51.910;8.878;2023-05-20T00:35:34;100566.09;;;12.32;47.46
26823;BME280;14852;51.910;8.878;2023-05-20T00:38:00;100568.69;;;12.32;47.38
26823;BME280;14852;51.910;8.878;2023-05-20T00:40:25;100563.31;;;12.36;47.47
26823;BME280;14852;51.910;8.878;2023-05-20T00:42:51;100564.09;;;12.38;47.44
26823;BME280;14852;51.910;8.878;2023-05-20T00:45:17;100569.44;;;12.34;47.30
26823;BME280;14852;51.910;8.878;2023-05-20T00:47:43;100564.38;;;12.31;47.46
26823;BME280;14852;51.910;8.878;2023-05-20T00:50:09;100571.63;;;12.25;47.57
26823;BME280;14852;51.910;8.878;2023-05-20T00:52:36;100566.47;;;12.23;47.68
26823;BME280;14852;51.910;8.878;2023-05-20T00:55:03;100568.09;;;12.26;47.55
26823;BME280;14852;51.910;8.878;2023-05-20T00:57:29;100574.03;;;12.29;47.82
26823;BME280;14852;51.910;8.878;2023-05-20T00:59:55;100572.03;;;12.34;47.55
26823;BME280;14852;51.910;8.878;2023-05-20T01:02:22;100576.28;;;12.37;47.69
26823;BME280;14852;51.910;8.878;2023-05-20T01:04:49;100565.84;;;12.37;47.75
26823;BME280;14852;51.910;8.878;2023-05-20T01:07:17;100570.91;;;12.40;47.60
26823;BME280;14852;51.910;8.878;2023-05-20T01:09:44;100574.38;;;12.41;47.38
26823;BME280;14852;51.910;8.878;2023-05-20T01:12:39;100569.94;;;12.43;47.66
26823;BME280;14852;51.910;8.878;2023-05-20T01:15:12;100564.31;;;12.33;47.57
26823;BME280;14852;51.910;8.878;2023-05-20T01:17:44;100555.94;;;12.26;48.05
26823;BME280;14852;51.910;8.878;2023-05-20T01:20:13;100552.63;;;12.23;47.80
26823;BME280;14852;51.910;8.878;2023-05-20T01:22:52;100558.53;;;12.26;48.32
26823;BME280;14852;51.910;8.878;2023-05-20T01:25:19;100559.44;;;12.25;48.05
26823;BME280;14852;51.910;8.878;2023-05-20T01:27:46;100560.28;;;12.26;48.34
26823;BME280;14852;51.910;8.878;2023-05-20T01:30:13;100554.41;;;12.22;47.97
26823;BME280;14852;51.910;8.878;2023-05-20T01:32:49;100555.66;;;12.14;48.35
26823;BME280;14852;51.910;8.878;2023-05-20T01:35:17;100553.53;;;12.03;48.36
26823;BME280;14852;51.910;8.878;2023-05-20T01:37:43;100550.31;;;11.98;48.72
26823;BME280;14852;51.910;8.878;2023-05-20T01:40:11;100554.81;;;11.94;48.62
26823;BME280;14852;51.910;8.878;2023-05-20T01:42:39;100555.84;;;11.90;48.92
26823;BME280;14852;51.910;8.878;2023-05-20T01:45:06;100556.97;;;11.85;48.86
26823;BME280;14852;51.910;8.878;2023-05-20T01:47:32;100553.19;;;11.72;49.07
26823;BME280;14852;51.910;8.878;2023-05-20T01:49:58;100543.31;;;11.59;49.25
26823;BME280;14852;51.910;8.878;2023-05-20T01:52:24;100540.34;;;11.48;49.46
26823;BME280;14852;51.910;8.878;2023-05-20T01:54:50;100539.69;;;11.43;49.47
26823;BME280;14852;51.910;8.878;2023-05-20T01:57:22;100540.41;;;11.47;49.46
26823;BME280;14852;51.910;8.878;2023-05-20T01:59:50;100535.16;;;11.48;49.46
26823;BME280;14852;51.910;8.878;2023-05-20T02:02:16;100539.22;;;11.54;49.33
26823;BME280;14852;51.910;8.878;2023-05-20T02:04:44;100532.84;;;11.61;49.45
26823;BME280;14852;51.910;8.878;2023-05-20T02:07:14;100529.22;;;11.65;49.04
26823;BME280;14852;51.910;8.878;2023-05-20T02:09:41;100532.50;;;11.69;49.35
26823;BME280;14852;51.910;8.878;2023-05-20T02:12:07;100535.16;;;11.67;49.16
26823;BME280;14852;51.910;8.878;2023-05-20T02:14:34;100538.25;;;11.56;49.61
26823;BME280;14852;51.910;8.878;2023-05-20T02:17:00;100536.13;;;11.46;49.68
26823;BME280;14852;51.910;8.878;2023-05-20T02:19:26;100534.47;;;11.43;49.89
26823;BME280;14852;51.910;8.878;2023-05-20T02:21:52;100534.56;;;11.42;49.88
26823;BME280;14852;51.910;8.878;2023-05-20T02:24:18;100532.66;;;11.45;49.72
26823;BME280;14852;51.910;8.878;2023-05-20T02:26:46;100539.38;;;11.51;49.72
26823;BME280;14852;51.910;8.878;2023-05-20T02:29:15;100537.34;;;11.57;49.58
26823;BME280;14852;51.910;8.878;2023-05-20T02:31:42;100538.31;;;11.55;49.73
26823;BME280;14852;51.910;8.878;2023-05-20T02:34:07;100536.13;;;11.46;49.77
26823;BME280;14852;51.910;8.878;2023-05-20T02:36:33;100528.59;;;11.40;49.96
26823;BME280;14852;51.910;8.878;2023-05-20T02:39:00;100527.81;;;11.38;49.75
26823;BME280;14852;51.910;8.878;2023-05-20T02:41:26;100532.94;;;11.39;50.00
26823;BME280;14852;51.910;8.878;2023-05-20T02:43:52;100526.00;;;11.40;49.86
26823;BME280;14852;51.910;8.878;2023-05-20T02:46:19;100527.88;;;11.36;50.18
26823;BME280;14852;51.910;8.878;2023-05-20T02:48:45;100530.81;;;11.29;50.15
26823;BME280;14852;51.910;8.878;2023-05-20T02:51:10;100529.97;;;11.28;50.36
26823;BME280;14852;51.910;8.878;2023-05-20T02:53:37;100529.06;;;11.29;50.11
26823;BME280;14852;51.910;8.878;2023-05-20T02:56:03;100526.41;;;11.31;50.17
26823;BME280;14852;51.910;8.878;2023-05-20T02:58:29;100532.41;;;11.31;50.38
26823;BME280;14852;51.910;8.878;2023-05-20T03:00:55;100521.19;;;11.31;50.23
26823;BME280;14852;51.910;8.878;2023-05-20T03:03:24;100522.94;;;11.30;50.17
26823;BME280;14852;51.910;8.878;2023-05-20T03:05:51;100520.59;;;11.24;50.54
26823;BME280;14852;51.910;8.878;2023-05-20T03:08:19;100521.78;;;11.17;50.58
26823;BME280;14852;51.910;8.878;2023-05-20T03:10:45;100522.81;;;11.13;50.92
26823;BME280;14852;51.910;8.878;2023-05-20T03:13:11;100529.88;;;11.09;50.60
26823;BME280;14852;51.910;8.878;2023-05-20T03:15:46;100527.34;;;11.08;50.68
26823;BME280;14852;51.910;8.878;2023-05-20T03:18:12;100532.47;;;11.09;50.76
26823;BME280;14852;51.910;8.878;2023-05-20T03:20:40;100532.63;;;11.06;51.06
26823;BME280;14852;51.910;8.878;2023-05-20T03:23:07;100532.69;;;11.05;51.09
26823;BME280;14852;51.910;8.878;2023-05-20T03:25:36;100529.63;;;10.95;51.22
26823;BME280;14852;51.910;8.878;2023-05-20T03:28:02;100536.25;;;10.82;51.48
26823;BME280;14852;51.910;8.878;2023-05-20T03:30:28;100533.75;;;10.79;51.39
26823;BME280;14852;51.910;8.878;2023-05-20T03:32:55;100541.50;;;10.80;51.35
26823;BME280;14852;51.910;8.878;2023-05-20T03:35:22;100546.59;;;10.83;51.23
26823;BME280;14852;51.910;8.878;2023-05-20T03:37:48;100548.13;;;10.87;51.49
26823;BME280;14852;51.910;8.878;2023-05-20T03:40:17;100546.59;;;10.83;51.49
26823;BME280;14852;51.910;8.878;2023-05-20T03:42:43;100542.41;;;10.79;51.78
26823;BME280;14852;51.910;8.878;2023-05-20T03:45:09;100542.72;;;10.72;52.03
26823;BME280;14852;51.910;8.878;2023-05-20T03:47:42;100543.00;;;10.64;51.96
26823;BME280;14852;51.910;8.878;2023-05-20T03:50:08;100543.34;;;10.57;52.08
26823;BME280;14852;51.910;8.878;2023-05-20T03:52:35;100553.72;;;10.57;51.96
26823;BME280;14852;51.910;8.878;2023-05-20T03:55:01;100543.06;;;10.63;52.04
26823;BME280;14852;51.910;8.878;2023-05-20T03:57:29;100541.16;;;10.68;51.77
26823;BME280;14852;51.910;8.878;2023-05-20T03:59:56;100540.41;;;10.64;52.19
26823;BME280;14852;51.910;8.878;2023-05-20T04:02:22;100541.53;;;10.59;51.85
26823;BME280;14852;51.910;8.878;2023-05-20T04:04:48;100543.56;;;10.50;52.34
26823;BME280;14852;51.910;8.878;2023-05-20T04:07:17;100544.72;;;10.43;52.23
26823;BME280;14852;51.910;8.878;2023-05-20T04:09:44;100538.94;;;10.37;52.41
26823;BME280;14852;51.910;8.878;2023-05-20T04:12:10;100544.88;;;10.39;52.39
26823;BME280;14852;51.910;8.878;2023-05-20T04:14:36;100543.81;;;10.44;52.31
26823;BME280;14852;51.910;8.878;2023-05-20T04:17:03;100530.56;;;10.50;52.42
26823;BME280;14852;51.910;8.878;2023-05-20T04:19:31;100539.22;;;10.51;52.48
26823;BME280;14852;51.910;8.878;2023-05-20T04:21:56;100532.16;;;10.55;52.48
26823;BME280;14852;51.910;8.878;2023-05-20T04:24:22;100536.31;;;10.59;52.11
26823;BME280;14852;51.910;8.878;2023-05-20T04:26:50;100536.19;;;10.62;52.18
26823;BME280;14852;51.910;8.878;2023-05-20T04:29:17;100530.06;;;10.63;52.40
26823;BME280;14852;51.910;8.878;2023-05-20T04:31:46;100523.47;;;10.76;52.58
26823;BME280;14852;51.910;8.878;2023-05-20T04:34:13;100530.84;;;11.47;51.74
26823;BME280;14852;51.910;8.878;2023-05-20T04:36:39;100523.88;;;12.24;49.96
26823;BME280;14852;51.910;8.878;2023-05-20T04:39:06;100510.25;;;12.73;49.04
26823;BME280;14852;51.910;8.878;2023-05-20T04:41:32;100515.81;;;13.35;48.06
26823;BME280;14852;51.910;8.878;2023-05-20T04:43:58;100513.97;;;13.86;47.42
26823;BME280;14852;51.910;8.878;2023-05-20T04:46:26;100513.16;;;14.17;46.65
26823;BME280;14852;51.910;8.878;2023-05-20T04:48:52;100505.75;;;14.41;46.77
26823;BME280;14852;51.910;8.878;2023-05-20T04:51:19;100511.69;;;14.89;46.27
26823;BME280;14852;51.910;8.878;2023-05-20T04:53:45;100502.88;;;15.05;46.39
26823;BME280;14852;51.910;8.878;2023-05-20T04:56:11;100512.53;;;14.89;46.73
26823;BME280;14852;51.910;8.878;2023-05-20T04:58:38;100518.16;;;14.83;47.59
26823;BME280;14852;51.910;8.878;2023-05-20T05:01:04;100513.75;;;14.83;48.14
26823;BME280;14852;51.910;8.878;2023-05-20T05:03:31;100511.03;;;14.55;48.23
26823;BME280;14852;51.910;8.878;2023-05-20T05:05:57;100520.31;;;14.29;49.44
26823;BME280;14852;51.910;8.878;2023-05-20T05:08:24;100514.41;;;14.10;49.92
26823;BME280;14852;51.910;8.878;2023-05-20T05:10:51;100517.69;;;13.98;50.59
26823;BME280;14852;51.910;8.878;2023-05-20T05:13:17;100515.06;;;13.98;50.68
26823;BME280;14852;51.910;8.878;2023-05-20T05:15:43;100510.38;;;14.04;50.77
26823;BME280;14852;51.910;8.878;2023-05-20T05:18:10;100507.94;;;14.17;50.49
26823;BME280;14852;51.910;8.878;2023-05-20T05:20:37;100508.94;;;14.30;50.61
26823;BME280;14852;51.910;8.878;2023-05-20T05:23:03;100509.06;;;14.74;49.87
26823;BME280;14852;51.910;8.878;2023-05-20T05:25:29;100504.38;;;15.23;48.56
26823;BME280;14852;51.910;8.878;2023-05-20T05:27:57;100504.72;;;15.62;48.23
26823;BME280;14852;51.910;8.878;2023-05-20T05:30:23;100503.03;;;15.89;47.87
26823;BME280;14852;51.910;8.878;2023-05-20T05:32:49;100503.13;;;16.02;48.29
26823;BME280;14852;51.910;8.878;2023-05-20T05:35:16;100501.59;;;16.12;48.18
26823;BME280;14852;51.910;8.878;2023-05-20T05:37:42;100499.97;;;16.23;48.27
26823;BME280;14852;51.910;8.878;2023-05-20T05:40:08;100498.53;;;16.32;48.18
26823;BME280;14852;51.910;8.878;2023-05-20T05:42:35;100501.88;;;16.48;48.41
26823;BME280;14852;51.910;8.878;2023-05-20T05:45:01;100497.47;;;16.88;47.44
26823;BME280;14852;51.910;8.878;2023-05-20T05:47:29;100483.88;;;18.32;44.88
26823;BME280;14852;51.910;8.878;2023-05-20T05:49:57;100487.38;;;19.82;42.89
26823;BME280;14852;51.910;8.878;2023-05-20T05:52:26;100478.41;;;21.34;39.78
26823;BME280;14852;51.910;8.878;2023-05-20T05:54:52;100463.56;;;22.61;37.25
26823;BME280;14852;51.910;8.878;2023-05-20T05:57:18;100473.69;;;23.60;36.25
26823;BME280;14852;51.910;8.878;2023-05-20T05:59:44;100462.50;;;24.11;35.05
26823;BME280;14852;51.910;8.878;2023-05-20T06:02:09;100451.13;;;24.72;34.29
26823;BME280;14852;51.910;8.878;2023-05-20T06:04:35;100453.59;;;24.66;34.70
26823;BME280;14852;51.910;8.878;2023-05-20T06:07:01;100446.25;;;25.03;34.49
26823;BME280;14852;51.910;8.878;2023-05-20T06:09:27;100449.00;;;24.94;34.06
26823;BME280;14852;51.910;8.878;2023-05-20T06:11:53;100454.28;;;24.50;34.43
26823;BME280;14852;51.910;8.878;2023-05-20T06:14:19;100452.78;;;24.30;34.65
26823;BME280;14852;51.910;8.878;2023-05-20T06:16:45;100459.69;;;24.13;35.32
26823;BME280;14852;51.910;8.878;2023-05-20T06:19:11;100459.84;;;24.11;35.64
26823;BME280;14852;51.910;8.878;2023-05-20T06:21:37;100454.75;;;24.28;35.14
26823;BME280;14852;51.910;8.878;2023-05-20T06:24:04;100457.97;;;24.22;35.61
26823;BME280;14852;51.910;8.878;2023-05-20T06:26:31;100457.72;;;24.42;34.77
26823;BME280;14852;51.910;8.878;2023-05-20T06:28:58;100467.00;;;24.11;34.77
26823;BME280;14852;51.910;8.878;2023-05-20T06:31:25;100459.53;;;23.69;35.95
26823;BME280;14852;51.910;8.878;2023-05-20T06:33:51;100466.03;;;23.85;36.07
26823;BME280;14852;51.910;8.878;2023-05-20T06:36:17;100461.13;;;24.52;35.37
26823;BME280;14852;51.910;8.878;2023-05-20T06:38:43;100452.72;;;24.83;34.36
26823;BME280;14852;51.910;8.878;2023-05-20T06:41:11;100444.69;;;24.75;34.55
26823;BME280;14852;51.910;8.878;2023-05-20T06:43:37;100464.56;;;24.71;34.57
26823;BME280;14852;51.910;8.878;2023-05-20T06:46:21;100455.13;;;23.14;36.37
26823;BME280;14852;51.910;8.878;2023-05-20T06:48:53;100467.00;;;22.13;38.36
26823;BME280;14852;51.910;8.878;2023-05-20T06:51:19;100461.66;;;21.54;39.53
26823;BME280;14852;51.910;8.878;2023-05-20T06:53:47;100458.94;;;20.93;40.22
26823;BME280;14852;51.910;8.878;2023-05-20T06:56:14;100462.91;;;20.67;41.03
26823;BME280;14852;51.910;8.878;2023-05-20T06:58:40;100458.78;;;20.53;41.39
26823;BME280;14852;51.910;8.878;2023-05-20T07:01:05;100458.38;;;20.25;41.55
26823;BME280;14852;51.910;8.878;2023-05-20T07:03:31;100457.41;;;20.27;41.98
26823;BME280;14852;51.910;8.878;2023-05-20T07:05:57;100455.84;;;20.35;41.91
26823;BME280;14852;51.910;8.878;2023-05-20T07:08:23;100444.22;;;20.58;41.63
26823;BME280;14852;51.910;8.878;2023-05-20T07:10:49;100453.22;;;20.88;40.68
26823;BME280;14852;51.910;8.878;2023-05-20T07:13:19;100444.16;;;20.90;40.50
26823;BME280;14852;51.910;8.878;2023-05-20T07:15:49;100447.38;;;21.36;39.96
26823;BME280;14852;51.910;8.878;2023-05-20T07:18:15;100442.88;;;21.57;39.97
26823;BME280;14852;51.910;8.878;2023-05-20T07:20:43;100445.34;;;21.18;40.44
26823;BME280;14852;51.910;8.878;2023-05-20T07:23:15;100440.06;;;20.77;40.91
26823;BME280;14852;51.910;8.878;2023-05-20T07:25:43;100436.63;;;20.44;41.48
26823;BME280;14852;51.910;8.878;2023-05-20T07:28:10;100437.84;;;20.40;41.51
26823;BME280;14852;51.910;8.878;2023-05-20T07:30:35;100438.44;;;20.33;42.08
26823;BME280;14852;51.910;8.878;2023-05-20T07:33:15;100441.59;;;20.27;41.94
26823;BME280;14852;51.910;8.878;2023-05-20T07:35:44;100436.06;;;20.30;41.66
26823;BME280;14852;51.910;8.878;2023-05-20T07:38:11;100424.47;;;21.46;39.57
26823;BME280;14852;51.910;8.878;2023-05-20T07:40:39;100408.19;;;23.24;36.94
26823;BME280;14852;51.910;8.878;2023-05-20T07:43:07;100391.84;;;24.72;34.10
26823;BME280;14852;51.910;8.878;2023-05-20T07:45:34;100393.97;;;25.54;33.17
26823;BME280;14852;51.910;8.878;2023-05-20T07:48:02;100393.66;;;26.15;32.35
26823;BME280;14852;51.910;8.878;2023-05-20T07:50:28;100384.69;;;26.65;31.47
26823;BME280;14852;51.910;8.878;2023-05-20T07:52:54;100388.00;;;26.67;31.59
26823;BME280;14852;51.910;8.878;2023-05-20T07:55:19;100394.63;;;26.06;32.18
26823;BME280;14852;51.910;8.878;2023-05-20T07:57:45;100408.09;;;25.54;32.71
26823;BME280;14852;51.910;8.878;2023-05-20T08:00:12;100401.03;;;24.34;34.38
26823;BME280;14852;51.910;8.878;2023-05-20T08:02:42;100404.28;;;23.28;35.81
26823;BME280;14852;51.910;8.878;2023-05-20T08:05:11;100417.38;;;22.92;36.56
26823;BME280;14852;51.910;8.878;2023-05-20T08:07:37;100410.44;;;22.72;37.02
26823;BME280;14852;51.910;8.878;2023-05-20T08:10:03;100403.72;;;22.87;36.81
26823;BME280;14852;51.910;8.878;2023-05-20T08:12:29;100411.44;;;22.23;37.99
26823;BME280;14852;51.910;8.878;2023-05-20T08:14:56;100407.22;;;22.01;38.18
26823;BME280;14852;51.910;8.878;2023-05-20T08:17:22;100417.59;;;21.74;38.93
26823;BME280;14852;51.910;8.878;2023-05-20T08:19:47;100409.34;;;21.27;39.65
26823;BME280;14852;51.910;8.878;2023-05-20T08:22:13;100416.69;;;21.23;40.02
26823;BME280;14852;51.910;8.878;2023-05-20T08:24:39;100408.09;;;21.21;40.05
26823;BME280;14852;51.910;8.878;2023-05-20T08:27:05;100404.00;;;21.17;40.16
26823;BME280;14852;51.910;8.878;2023-05-20T08:29:32;100406.81;;;20.95;40.63
26823;BME280;14852;51.910;8.878;2023-05-20T08:31:58;100403.34;;;20.74;41.03
26823;BME280;14852;51.910;8.878;2023-05-20T08:34:25;100400.50;;;20.66;41.02
26823;BME280;14852;51.910;8.878;2023-05-20T08:36:51;100405.00;;;20.54;41.46
26823;BME280;14852;51.910;8.878;2023-05-20T08:39:18;100395.75;;;20.28;41.31
26823;BME280;14852;51.910;8.878;2023-05-20T08:41:46;100396.84;;;20.25;41.95
26823;BME280;14852;51.910;8.878;2023-05-20T08:44:12;100401.81;;;20.18;42.28
26823;BME280;14852;51.910;8.878;2023-05-20T08:46:40;100396.56;;;20.07;42.53
26823;BME280;14852;51.910;8.878;2023-05-20T08:49:07;100395.22;;;20.13;42.38
26823;BME280;14852;51.910;8.878;2023-05-20T08:51:33;100392.16;;;20.29;42.51
26823;BME280;14852;51.910;8.878;2023-05-20T08:54:01;100394.28;;;20.35;42.48
26823;BME280;14852;51.910;8.878;2023-05-20T08:56:27;100400.00;;;20.19;42.56
26823;BME280;14852;51.910;8.878;2023-05-20T08:58:53;100398.09;;;20.10;42.87
26823;BME280;14852;51.910;8.878;2023-05-20T09:01:26;100389.47;;;20.08;42.68
26823;BME280;14852;51.910;8.878;2023-05-20T09:03:51;100386.09;;;20.17;42.89
26823;BME280;14852;51.910;8.878;2023-05-20T09:06:17;100391.25;;;20.18;42.54
26823;BME280;14852;51.910;8.878;2023-05-20T09:08:48;100378.25;;;20.27;42.46
26823;BME280;14852;51.910;8.878;2023-05-20T09:11:16;100374.75;;;20.37;42.10
26823;BME280;14852;51.910;8.878;2023-05-20T09:13:42;100374.38;;;20.31;42.31
26823;BME280;14852;51.910;8.878;2023-05-20T09:16:09;100370.44;;;20.57;42.17
26823;BME280;14852;51.910;8.878;2023-05-20T09:18:38;100383.81;;;20.86;42.07
26823;BME280;14852;51.910;8.878;2023-05-20T09:21:05;100372.19;;;21.19;41.26
26823;BME280;14852;51.910;8.878;2023-05-20T09:23:36;100368.78;;;21.38;41.46
26823;BME280;14852;51.910;8.878;2023-05-20T09:26:03;100372.94;;;21.30;40.74
26823;BME280;14852;51.910;8.878;2023-05-20T09:28:29;100385.50;;;21.17;41.09
26823;BME280;14852;51.910;8.878;2023-05-20T09:30:58;100371.84;;;21.33;40.93
26823;BME280;14852;51.910;8.878;2023-05-20T09:33:28;100360.84;;;21.38;41.05
26823;BME280;14852;51.910;8.878;2023-05-20T09:36:03;100367.69;;;21.50;41.01
26823;BME280;14852;51.910;8.878;2023-05-20T09:38:33;100366.72;;;21.51;40.69
26823;BME280;14852;51.910;8.878;2023-05-20T09:41:10;100357.47;;;21.36;40.84
26823;BME280;14852;51.910;8.878;2023-05-20T09:43:38;100374.75;;;21.40;40.68
26823;BME280;14852;51.910;8.878;2023-05-20T09:46:05;100372.84;;;21.51;40.64
26823;BME280;14852;51.910;8.878;2023-05-20T09:48:34;100368.03;;;21.66;40.23
26823;BME280;14852;51.910;8.878;2023-05-20T09:51:00;100382.19;;;21.46;40.47
26823;BME280;14852;51.910;8.878;2023-05-20T09:53:27;100369.19;;;21.33;40.57
26823;BME280;14852;51.910;8.878;2023-05-20T09:55:54;100365.59;;;21.34;40.33
26823;BME280;14852;51.910;8.878;2023-05-20T09:58:22;100369.88;;;21.35;40.84
26823;BME280;14852;51.910;8.878;2023-05-20T10:00:47;100374.19;;;21.36;40.46
26823;BME280;14852;51.910;8.878;2023-05-20T10:03:14;100368.63;;;21.39;40.18
26823;BME280;14852;51.910;8.878;2023-05-20T10:05:50;100364.59;;;21.35;40.63
26823;BME280;14852;51.910;8.878;2023-05-20T10:12:02;100371.72;;;21.14;40.82
26823;BME280;14852;51.910;8.878;2023-05-20T10:18:17;100371.25;;;21.29;41.16
26823;BME280;14852;51.910;8.878;2023-05-20T10:20:49;100369.19;;;21.33;41.12
26823;BME280;14852;51.910;8.878;2023-05-20T10:23:23;100368.63;;;21.39;41.44
26823;BME280;14852;51.910;8.878;2023-05-20T10:25:53;100360.56;;;21.31;40.95
26823;BME280;14852;51.910;8.878;2023-05-20T10:28:33;100366.38;;;21.35;41.17
26823;BME280;14852;51.910;8.878;2023-05-20T10:31:01;100368.78;;;21.47;40.70
26823;BME280;14852;51.910;8.878;2023-05-20T10:33:28;100364.75;;;21.43;40.81
26823;BME280;14852;51.910;8.878;2023-05-20T10:36:00;100354.19;;;21.43;40.67
26823;BME280;14852;51.910;8.878;2023-05-20T10:38:25;100361.41;;;21.41;41.32
26823;BME280;14852;51.910;8.878;2023-05-20T10:40:52;100357.78;;;21.33;40.99
26823;BME280;14852;51.910;8.878;2023-05-20T10:43:27;100359.88;;;21.39;40.81
26823;BME280;14852;51.910;8.878;2023-05-20T10:45:55;100353.63;;;21.49;40.82
26823;BME280;14852;51.910;8.878;2023-05-20T10:48:30;100345.47;;;21.81;40.64
26823;BME280;14852;51.910;8.878;2023-05-20T10:51:02;100335.47;;;21.94;40.34
26823;BME280;14852;51.910;8.878;2023-05-20T10:53:41;100338.00;;;22.06;40.07
26823;BME280;14852;51.910;8.878;2023-05-20T10:56:20;100338.81;;;22.16;39.80
26823;BME280;14852;51.910;8.878;2023-05-20T10:58:47;100342.63;;;22.13;39.88
26823;BME280;14852;51.910;8.878;2023-05-20T11:01:13;100330.50;;;22.01;39.88
26823;BME280;14852;51.910;8.878;2023-05-20T11:03:40;100344.00;;;22.08;40.27
26823;BME280;14852;51.910;8.878;2023-05-20T11:06:14;100333.13;;;22.01;40.31
26823;BME280;14852;51.910;8.878;2023-05-20T11:08:40;100331.59;;;21.98;40.24
26823;BME280;14852;51.910;8.878;2023-05-20T11:11:06;100332.69;;;22.06;40.01
26823;BME280;14852;51.910;8.878;2023-05-20T11:13:32;100328.53;;;22.22;39.84
26823;BME280;14852;51.910;8.878;2023-05-20T11:15:59;100321.84;;;22.18;39.67
26823;BME280;14852;51.910;8.878;2023-05-20T11:18:28;100341.03;;;22.39;39.52
26823;BME280;14852;51.910;8.878;2023-05-20T11:21:00;100329.47;;;22.31;39.81
26823;BME280;14852;51.910;8.878;2023-05-20T11:23:28;100316.00;;;22.15;39.91
26823;BME280;14852;51.910;8.878;2023-05-20T11:25:55;100319.59;;;22.04;39.76
26823;BME280;14852;51.910;8.878;2023-05-20T11:28:22;100330.16;;;21.94;40.61
26823;BME280;14852;51.910;8.878;2023-05-20T11:30:52;100322.22;;;21.94;40.64
26823;BME280;14852;51.910;8.878;2023-05-20T11:33:18;100315.13;;;21.76;40.55
26823;BME280;14852;51.910;8.878;2023-05-20T11:35:51;100322.09;;;21.77;41.00
26823;BME280;14852;51.910;8.878;2023-05-20T11:38:18;100318.75;;;21.75;40.99
26823;BME280;14852;51.910;8.878;2023-05-20T11:40:53;100320.94;;;21.69;40.68
26823;BME280;14852;51.910;8.878;2023-05-20T11:43:20;100320.41;;;21.66;40.93
26823;BME280;14852;51.910;8.878;2023-05-20T11:45:56;100322.09;;;21.57;40.89
26823;BME280;14852;51.910;8.878;2023-05-20T11:48:24;100321.06;;;21.49;41.04
26823;BME280;14852;51.910;8.878;2023-05-20T11:50:52;100312.31;;;21.58;41.07
26823;BME280;14852;51.910;8.878;2023-05-20T11:53:22;100312.09;;;21.80;40.85
26823;BME280;14852;51.910;8.878;2023-05-20T11:55:54;100302.03;;;21.84;40.61
26823;BME280;14852;51.910;8.878;2023-05-20T11:58:29;100302.34;;;21.90;40.44
26823;BME280;14852;51.910;8.878;2023-05-20T12:00:55;100303.59;;;22.06;40.79
26823;BME280;14852;51.910;8.878;2023-05-20T12:03:21;100312.94;;;22.00;40.66
26823;BME280;14852;51.910;8.878;2023-05-20T12:05:48;100309.69;;;21.87;40.75
26823;BME280;14852;51.910;8.878;2023-05-20T12:08:15;100304.28;;;21.69;40.95
26823;BME280;14852;51.910;8.878;2023-05-20T12:10:41;100284.63;;;21.72;40.82
26823;BME280;14852;51.910;8.878;2023-05-20T12:13:07;100289.38;;;21.68;40.87
26823;BME280;14852;51.910;8.878;2023-05-20T12:15:37;100282.41;;;21.67;40.57
26823;BME280;14852;51.910;8.878;2023-05-20T12:18:03;100281.97;;;21.72;40.58
26823;BME280;14852;51.910;8.878;2023-05-20T12:20:29;100278.50;;;21.81;40.66
26823;BME280;14852;51.910;8.878;2023-05-20T12:22:59;100277.84;;;21.69;40.43
26823;BME280;14852;51.910;8.878;2023-05-20T12:25:25;100288.09;;;21.62;40.33
26823;BME280;14852;51.910;8.878;2023-05-20T12:27:51;100274.63;;;21.65;40.88
26823;BME280;14852;51.910;8.878;2023-05-20T12:30:19;100281.72;;;21.75;40.83
26823;BME280;14852;51.910;8.878;2023-05-20T12:32:47;100275.72;;;21.82;40.58
26823;BME280;14852;51.910;8.878;2023-05-20T12:35:14;100268.91;;;21.80;40.43
26823;BME280;14852;51.910;8.878;2023-05-20T12:37:40;100270.72;;;21.79;40.93
26823;BME280;14852;51.910;8.878;2023-05-20T12:40:08;100271.97;;;21.94;40.96
26823;BME280;14852;51.910;8.878;2023-05-20T12:42:35;100259.88;;;22.01;40.55
26823;BME280;14852;51.910;8.878;2023-05-20T12:45:01;100280.03;;;21.93;40.41
26823;BME280;14852;51.910;8.878;2023-05-20T12:47:28;100267.91;;;21.81;40.79
26823;BME280;14852;51.910;8.878;2023-05-20T12:49:54;100262.22;;;21.76;40.76
26823;BME280;14852;51.910;8.878;2023-05-20T12:52:20;100268.06;;;21.69;41.02
26823;BME280;14852;51.910;8.878;2023-05-20T12:54:46;100268.63;;;21.73;40.28
26823;BME280;14852;51.910;8.878;2023-05-20T12:57:11;100263.47;;;21.43;40.56
26823;BME280;14852;51.910;8.878;2023-05-20T12:59:37;100260.38;;;21.28;40.70